Terminal Aerodrome Forecast
Issued by NWS Upton, NY

Current Version | Previous Version | Text Only | Print | Product List | Glossary On
Versions: 1 2 3 4 5 6 7 8 9 10 11 12 13 14 15 16 17 18 19 20 21 22 23 24 25
000
FTUS41 KOKX 010800 AAA
TAFLGA
TAF AMD
KLGA 010844Z 0109/0206 04017G27KT 5SM -RA BR OVC015
     FM011700 36021G31KT 5SM -RA BR OVC015
     FM012300 35022G32KT P6SM BKN025 OVC035
     FM020300 34024G34KT P6SM SCT025 OVC040=

USA.gov is the U.S. government's official web portal to all federal, state and local government web resources and services.